sensor_id;sensor_type;location;lat;lon;timestamp;P1;durP1;ratioP1;P2;durP2;ratioP2
12681;SDS011;6405;59.208;18.216;2023-02-21T00:02:15;2.00;;;1.20;;
12681;SDS011;6405;59.208;18.216;2023-02-21T00:05:00;2.67;;;1.30;;
12681;SDS011;6405;59.208;18.216;2023-02-21T00:07:44;1.40;;;0.90;;
12681;SDS011;6405;59.208;18.216;2023-02-21T00:10:28;2.23;;;1.03;;
12681;SDS011;6405;59.208;18.216;2023-02-21T00:13:13;1.63;;;1.00;;
12681;SDS011;6405;59.208;18.216;2023-02-21T00:15:57;1.43;;;0.90;;
12681;SDS011;6405;59.208;18.216;2023-02-21T00:18:41;1.23;;;0.97;;
12681;SDS011;6405;59.208;18.216;2023-02-21T00:21:26;0.93;;;0.73;;
12681;SDS011;6405;59.208;18.216;2023-02-21T00:24:12;3.33;;;1.00;;
12681;SDS011;6405;59.208;18.216;2023-02-21T00:26:57;1.10;;;1.00;;
12681;SDS011;6405;59.208;18.216;2023-02-21T00:29:41;1.07;;;0.90;;
12681;SDS011;6405;59.208;18.216;2023-02-21T00:32:25;4.97;;;1.23;;
12681;SDS011;6405;59.208;18.216;2023-02-21T00:35:10;2.20;;;1.00;;
12681;SDS011;6405;59.208;18.216;2023-02-21T00:37:54;1.23;;;0.93;;
12681;SDS011;6405;59.208;18.216;2023-02-21T00:40:38;1.40;;;1.00;;
12681;SDS011;6405;59.208;18.216;2023-02-21T00:43:26;0.63;;;0.60;;
12681;SDS011;6405;59.208;18.216;2023-02-21T00:46:18;2.37;;;0.90;;
12681;SDS011;6405;59.208;18.216;2023-02-21T00:49:03;1.13;;;0.80;;
12681;SDS011;6405;59.208;18.216;2023-02-21T00:51:47;1.07;;;0.80;;
12681;SDS011;6405;59.208;18.216;2023-02-21T00:54:31;1.60;;;1.03;;
12681;SDS011;6405;59.208;18.216;2023-02-21T00:57:16;4.87;;;1.50;;
12681;SDS011;6405;59.208;18.216;2023-02-21T01:00:00;2.77;;;1.03;;
12681;SDS011;6405;59.208;18.216;2023-02-21T01:02:45;2.17;;;1.07;;
12681;SDS011;6405;59.208;18.216;2023-02-21T01:05:29;2.27;;;1.50;;
12681;SDS011;6405;59.208;18.216;2023-02-21T01:08:14;1.83;;;1.17;;
12681;SDS011;6405;59.208;18.216;2023-02-21T01:10:58;1.00;;;0.90;;
12681;SDS011;6405;59.208;18.216;2023-02-21T01:13:42;1.27;;;0.93;;
12681;SDS011;6405;59.208;18.216;2023-02-21T01:16:27;1.50;;;1.20;;
12681;SDS011;6405;59.208;18.216;2023-02-21T01:19:13;4.20;;;1.30;;
12681;SDS011;6405;59.208;18.216;2023-02-21T01:21:57;1.33;;;1.00;;
12681;SDS011;6405;59.208;18.216;2023-02-21T01:24:41;1.70;;;1.10;;
12681;SDS011;6405;59.208;18.216;2023-02-21T01:27:26;1.77;;;1.10;;
12681;SDS011;6405;59.208;18.216;2023-02-21T01:30:10;1.43;;;1.00;;
12681;SDS011;6405;59.208;18.216;2023-02-21T01:32:55;2.17;;;1.00;;
12681;SDS011;6405;59.208;18.216;2023-02-21T01:35:39;2.20;;;1.07;;
12681;SDS011;6405;59.208;18.216;2023-02-21T01:38:23;2.07;;;1.10;;
12681;SDS011;6405;59.208;18.216;2023-02-21T01:41:08;1.43;;;1.10;;
12681;SDS011;6405;59.208;18.216;2023-02-21T01:44:00;2.80;;;1.30;;
12681;SDS011;6405;59.208;18.216;2023-02-21T01:46:50;2.07;;;1.33;;
12681;SDS011;6405;59.208;18.216;2023-02-21T01:49:36;2.70;;;1.07;;
12681;SDS011;6405;59.208;18.216;2023-02-21T01:52:22;2.23;;;1.10;;
12681;SDS011;6405;59.208;18.216;2023-02-21T01:55:08;1.87;;;1.20;;
12681;SDS011;6405;59.208;18.216;2023-02-21T01:57:53;3.10;;;1.47;;
12681;SDS011;6405;59.208;18.216;2023-02-21T02:00:38;4.17;;;1.20;;
12681;SDS011;6405;59.208;18.216;2023-02-21T02:03:24;3.93;;;1.70;;
12681;SDS011;6405;59.208;18.216;2023-02-21T02:06:11;2.17;;;1.57;;
12681;SDS011;6405;59.208;18.216;2023-02-21T02:08:57;2.43;;;1.60;;
12681;SDS011;6405;59.208;18.216;2023-02-21T02:14:54;2.90;;;1.40;;
12681;SDS011;6405;59.208;18.216;2023-02-21T02:26:11;4.53;;;1.57;;
12681;SDS011;6405;59.208;18.216;2023-02-21T02:37:20;4.80;;;1.30;;
12681;SDS011;6405;59.208;18.216;2023-02-21T02:39:50;2.60;;;1.40;;
12681;SDS011;6405;59.208;18.216;2023-02-21T02:45:07;3.87;;;1.50;;
12681;SDS011;6405;59.208;18.216;2023-02-21T02:47:36;3.10;;;1.90;;
12681;SDS011;6405;59.208;18.216;2023-02-21T02:50:04;2.40;;;1.67;;
12681;SDS011;6405;59.208;18.216;2023-02-21T02:52:33;2.50;;;1.87;;
12681;SDS011;6405;59.208;18.216;2023-02-21T02:55:00;2.10;;;1.60;;
12681;SDS011;6405;59.208;18.216;2023-02-21T02:57:29;2.93;;;1.93;;
12681;SDS011;6405;59.208;18.216;2023-02-21T03:00:05;4.10;;;1.77;;
12681;SDS011;6405;59.208;18.216;2023-02-21T03:13:52;2.80;;;1.87;;
12681;SDS011;6405;59.208;18.216;2023-02-21T03:16:23;4.27;;;2.10;;
12681;SDS011;6405;59.208;18.216;2023-02-21T03:21:56;5.53;;;2.50;;
12681;SDS011;6405;59.208;18.216;2023-02-21T03:24:25;4.33;;;2.50;;
12681;SDS011;6405;59.208;18.216;2023-02-21T03:26:54;3.20;;;2.33;;
12681;SDS011;6405;59.208;18.216;2023-02-21T03:29:24;2.97;;;2.30;;
12681;SDS011;6405;59.208;18.216;2023-02-21T03:31:54;5.13;;;2.40;;
12681;SDS011;6405;59.208;18.216;2023-02-21T03:34:21;3.93;;;2.40;;
12681;SDS011;6405;59.208;18.216;2023-02-21T03:36:46;7.40;;;2.37;;
12681;SDS011;6405;59.208;18.216;2023-02-21T03:39:13;4.83;;;2.47;;
12681;SDS011;6405;59.208;18.216;2023-02-21T03:41:39;4.27;;;2.83;;
12681;SDS011;6405;59.208;18.216;2023-02-21T03:44:04;13.23;;;3.63;;
12681;SDS011;6405;59.208;18.216;2023-02-21T03:46:30;13.10;;;3.80;;
12681;SDS011;6405;59.208;18.216;2023-02-21T03:48:56;14.53;;;3.80;;
12681;SDS011;6405;59.208;18.216;2023-02-21T03:51:21;15.03;;;4.37;;
12681;SDS011;6405;59.208;18.216;2023-02-21T03:53:47;16.57;;;4.20;;
12681;SDS011;6405;59.208;18.216;2023-02-21T03:56:13;8.83;;;4.00;;
12681;SDS011;6405;59.208;18.216;2023-02-21T03:58:38;7.20;;;3.60;;
12681;SDS011;6405;59.208;18.216;2023-02-21T04:01:04;9.37;;;3.73;;
12681;SDS011;6405;59.208;18.216;2023-02-21T04:03:29;9.67;;;4.33;;
12681;SDS011;6405;59.208;18.216;2023-02-21T04:05:55;6.80;;;3.73;;
12681;SDS011;6405;59.208;18.216;2023-02-21T04:08:21;9.00;;;5.00;;
12681;SDS011;6405;59.208;18.216;2023-02-21T04:10:46;9.83;;;3.97;;
12681;SDS011;6405;59.208;18.216;2023-02-21T04:13:12;9.43;;;4.10;;
12681;SDS011;6405;59.208;18.216;2023-02-21T04:15:38;7.40;;;3.70;;
12681;SDS011;6405;59.208;18.216;2023-02-21T04:18:03;7.03;;;3.80;;
12681;SDS011;6405;59.208;18.216;2023-02-21T04:20:29;8.07;;;4.20;;
12681;SDS011;6405;59.208;18.216;2023-02-21T04:22:55;7.30;;;3.80;;
12681;SDS011;6405;59.208;18.216;2023-02-21T04:25:20;6.60;;;3.57;;
12681;SDS011;6405;59.208;18.216;2023-02-21T04:27:46;8.93;;;4.40;;
12681;SDS011;6405;59.208;18.216;2023-02-21T04:30:12;8.73;;;4.07;;
12681;SDS011;6405;59.208;18.216;2023-02-21T04:32:37;8.00;;;3.43;;
12681;SDS011;6405;59.208;18.216;2023-02-21T04:35:03;8.57;;;4.27;;
12681;SDS011;6405;59.208;18.216;2023-02-21T04:37:29;9.53;;;3.57;;
12681;SDS011;6405;59.208;18.216;2023-02-21T04:39:54;7.43;;;3.80;;
12681;SDS011;6405;59.208;18.216;2023-02-21T04:42:20;6.33;;;3.70;;
12681;SDS011;6405;59.208;18.216;2023-02-21T04:44:45;7.30;;;4.13;;
12681;SDS011;6405;59.208;18.216;2023-02-21T04:47:11;7.33;;;4.30;;
12681;SDS011;6405;59.208;18.216;2023-02-21T04:49:37;6.00;;;3.83;;
12681;SDS011;6405;59.208;18.216;2023-02-21T04:52:02;7.03;;;3.80;;
12681;SDS011;6405;59.208;18.216;2023-02-21T04:54:28;7.70;;;4.17;;
12681;SDS011;6405;59.208;18.216;2023-02-21T04:56:53;7.00;;;3.33;;
12681;SDS011;6405;59.208;18.216;2023-02-21T04:59:19;9.73;;;3.87;;
12681;SDS011;6405;59.208;18.216;2023-02-21T05:01:45;4.90;;;3.30;;
12681;SDS011;6405;59.208;18.216;2023-02-21T05:04:10;6.67;;;3.60;;
12681;SDS011;6405;59.208;18.216;2023-02-21T05:06:36;8.67;;;4.40;;
12681;SDS011;6405;59.208;18.216;2023-02-21T05:09:02;7.13;;;3.47;;
12681;SDS011;6405;59.208;18.216;2023-02-21T05:11:31;7.37;;;3.93;;
12681;SDS011;6405;59.208;18.216;2023-02-21T05:13:58;7.60;;;4.20;;
12681;SDS011;6405;59.208;18.216;2023-02-21T05:16:24;9.77;;;4.73;;
12681;SDS011;6405;59.208;18.216;2023-02-21T05:18:50;11.97;;;6.20;;
12681;SDS011;6405;59.208;18.216;2023-02-21T05:21:17;6.53;;;4.20;;
12681;SDS011;6405;59.208;18.216;2023-02-21T05:23:43;7.97;;;4.40;;
12681;SDS011;6405;59.208;18.216;2023-02-21T05:26:19;7.47;;;3.90;;
12681;SDS011;6405;59.208;18.216;2023-02-21T05:28:48;6.87;;;4.13;;
12681;SDS011;6405;59.208;18.216;2023-02-21T05:31:14;12.00;;;6.13;;
12681;SDS011;6405;59.208;18.216;2023-02-21T05:33:40;13.50;;;9.90;;
12681;SDS011;6405;59.208;18.216;2023-02-21T05:36:06;10.50;;;5.50;;
12681;SDS011;6405;59.208;18.216;2023-02-21T05:38:32;6.13;;;3.73;;
12681;SDS011;6405;59.208;18.216;2023-02-21T05:40:57;6.70;;;3.80;;
12681;SDS011;6405;59.208;18.216;2023-02-21T05:43:23;7.27;;;3.90;;
12681;SDS011;6405;59.208;18.216;2023-02-21T05:45:49;5.10;;;3.30;;
12681;SDS011;6405;59.208;18.216;2023-02-21T05:48:14;11.13;;;6.70;;
12681;SDS011;6405;59.208;18.216;2023-02-21T05:50:40;8.07;;;5.20;;
12681;SDS011;6405;59.208;18.216;2023-02-21T05:53:06;10.00;;;5.97;;
12681;SDS011;6405;59.208;18.216;2023-02-21T05:55:34;7.53;;;5.03;;
12681;SDS011;6405;59.208;18.216;2023-02-21T05:58:00;6.80;;;4.33;;
12681;SDS011;6405;59.208;18.216;2023-02-21T06:00:26;9.93;;;5.07;;
12681;SDS011;6405;59.208;18.216;2023-02-21T06:02:54;6.83;;;4.80;;
12681;SDS011;6405;59.208;18.216;2023-02-21T06:05:20;9.53;;;4.70;;
12681;SDS011;6405;59.208;18.216;2023-02-21T06:07:47;9.53;;;5.13;;
12681;SDS011;6405;59.208;18.216;2023-02-21T06:10:14;8.03;;;5.40;;
12681;SDS011;6405;59.208;18.216;2023-02-21T06:12:40;6.50;;;4.40;;
12681;SDS011;6405;59.208;18.216;2023-02-21T06:15:06;6.93;;;4.53;;
12681;SDS011;6405;59.208;18.216;2023-02-21T06:17:33;7.57;;;5.50;;
12681;SDS011;6405;59.208;18.216;2023-02-21T06:20:00;10.00;;;5.70;;
12681;SDS011;6405;59.208;18.216;2023-02-21T06:22:26;14.83;;;6.57;;
12681;SDS011;6405;59.208;18.216;2023-02-21T06:24:51;6.63;;;4.97;;
12681;SDS011;6405;59.208;18.216;2023-02-21T06:27:17;7.97;;;5.17;;
12681;SDS011;6405;59.208;18.216;2023-02-21T06:29:43;5.63;;;3.90;;
12681;SDS011;6405;59.208;18.216;2023-02-21T06:32:08;5.87;;;4.30;;
12681;SDS011;6405;59.208;18.216;2023-02-21T06:34:34;5.27;;;3.50;;
12681;SDS011;6405;59.208;18.216;2023-02-21T06:37:00;7.83;;;4.60;;
12681;SDS011;6405;59.208;18.216;2023-02-21T06:39:26;10.00;;;5.23;;
12681;SDS011;6405;59.208;18.216;2023-02-21T06:41:51;10.07;;;6.30;;
12681;SDS011;6405;59.208;18.216;2023-02-21T06:44:17;7.73;;;4.90;;
12681;SDS011;6405;59.208;18.216;2023-02-21T06:46:43;8.53;;;5.10;;
12681;SDS011;6405;59.208;18.216;2023-02-21T06:49:09;8.53;;;5.10;;
12681;SDS011;6405;59.208;18.216;2023-02-21T06:51:38;7.50;;;5.00;;
12681;SDS011;6405;59.208;18.216;2023-02-21T06:54:05;8.93;;;6.17;;
12681;SDS011;6405;59.208;18.216;2023-02-21T06:56:35;8.07;;;5.07;;
12681;SDS011;6405;59.208;18.216;2023-02-21T06:59:01;6.53;;;3.93;;
12681;SDS011;6405;59.208;18.216;2023-02-21T07:01:28;7.57;;;4.47;;
12681;SDS011;6405;59.208;18.216;2023-02-21T07:03:55;8.10;;;4.77;;
12681;SDS011;6405;59.208;18.216;2023-02-21T07:06:22;6.23;;;3.90;;
12681;SDS011;6405;59.208;18.216;2023-02-21T07:08:48;6.97;;;3.87;;
12681;SDS011;6405;59.208;18.216;2023-02-21T07:11:13;5.43;;;3.50;;
12681;SDS011;6405;59.208;18.216;2023-02-21T07:13:40;5.03;;;3.10;;
12681;SDS011;6405;59.208;18.216;2023-02-21T07:16:05;5.60;;;3.30;;
12681;SDS011;6405;59.208;18.216;2023-02-21T07:18:31;4.10;;;3.17;;
12681;SDS011;6405;59.208;18.216;2023-02-21T07:20:57;5.23;;;3.43;;
12681;SDS011;6405;59.208;18.216;2023-02-21T07:23:23;6.77;;;3.23;;
12681;SDS011;6405;59.208;18.216;2023-02-21T07:25:49;7.17;;;3.33;;
12681;SDS011;6405;59.208;18.216;2023-02-21T07:28:15;5.63;;;3.70;;
12681;SDS011;6405;59.208;18.216;2023-02-21T07:30:40;5.97;;;3.73;;
12681;SDS011;6405;59.208;18.216;2023-02-21T07:33:06;4.80;;;3.20;;
12681;SDS011;6405;59.208;18.216;2023-02-21T07:35:32;5.40;;;3.90;;
12681;SDS011;6405;59.208;18.216;2023-02-21T07:37:57;5.17;;;3.57;;
12681;SDS011;6405;59.208;18.216;2023-02-21T07:40:23;6.70;;;3.57;;
12681;SDS011;6405;59.208;18.216;2023-02-21T07:42:49;7.37;;;3.50;;
12681;SDS011;6405;59.208;18.216;2023-02-21T07:45:14;6.37;;;3.63;;
12681;SDS011;6405;59.208;18.216;2023-02-21T07:47:41;6.40;;;3.50;;
12681;SDS011;6405;59.208;18.216;2023-02-21T07:50:08;5.80;;;3.83;;
12681;SDS011;6405;59.208;18.216;2023-02-21T07:52:34;5.10;;;3.63;;
12681;SDS011;6405;59.208;18.216;2023-02-21T07:55:00;4.90;;;3.57;;
12681;SDS011;6405;59.208;18.216;2023-02-21T07:57:25;5.30;;;3.60;;
12681;SDS011;6405;59.208;18.216;2023-02-21T07:59:51;6.00;;;3.70;;
12681;SDS011;6405;59.208;18.216;2023-02-21T08:02:17;6.07;;;3.43;;
12681;SDS011;6405;59.208;18.216;2023-02-21T08:04:43;5.83;;;3.53;;
12681;SDS011;6405;59.208;18.216;2023-02-21T08:07:09;6.40;;;3.80;;
12681;SDS011;6405;59.208;18.216;2023-02-21T08:09:35;6.73;;;4.00;;
12681;SDS011;6405;59.208;18.216;2023-02-21T08:12:02;8.60;;;4.37;;
12681;SDS011;6405;59.208;18.216;2023-02-21T08:14:27;7.13;;;4.20;;
12681;SDS011;6405;59.208;18.216;2023-02-21T08:16:53;6.73;;;4.13;;
12681;SDS011;6405;59.208;18.216;2023-02-21T08:19:19;8.70;;;4.40;;
12681;SDS011;6405;59.208;18.216;2023-02-21T08:21:45;8.17;;;4.63;;
12681;SDS011;6405;59.208;18.216;2023-02-21T08:24:11;8.23;;;4.40;;
12681;SDS011;6405;59.208;18.216;2023-02-21T08:26:37;5.57;;;3.80;;
12681;SDS011;6405;59.208;18.216;2023-02-21T08:29:06;5.30;;;3.77;;
12681;SDS011;6405;59.208;18.216;2023-02-21T08:31:34;6.07;;;4.00;;
12681;SDS011;6405;59.208;18.216;2023-02-21T08:34:04;4.77;;;3.57;;
12681;SDS011;6405;59.208;18.216;2023-02-21T08:36:31;5.40;;;3.27;;
12681;SDS011;6405;59.208;18.216;2023-02-21T08:38:57;5.40;;;3.47;;
12681;SDS011;6405;59.208;18.216;2023-02-21T08:41:22;5.67;;;4.30;;
12681;SDS011;6405;59.208;18.216;2023-02-21T08:43:49;5.90;;;3.80;;
12681;SDS011;6405;59.208;18.216;2023-02-21T08:46:15;7.43;;;4.33;;
12681;SDS011;6405;59.208;18.216;2023-02-21T08:48:41;6.27;;;3.10;;
12681;SDS011;6405;59.208;18.216;2023-02-21T08:51:06;5.43;;;3.43;;
12681;SDS011;6405;59.208;18.216;2023-02-21T08:53:32;5.60;;;3.47;;
12681;SDS011;6405;59.208;18.216;2023-02-21T08:55:58;6.77;;;4.00;;
12681;SDS011;6405;59.208;18.216;2023-02-21T08:58:23;7.17;;;3.37;;
12681;SDS011;6405;59.208;18.216;2023-02-21T09:00:49;7.87;;;3.50;;
12681;SDS011;6405;59.208;18.216;2023-02-21T09:03:14;6.67;;;3.47;;
12681;SDS011;6405;59.208;18.216;2023-02-21T09:05:40;5.60;;;4.00;;
12681;SDS011;6405;59.208;18.216;2023-02-21T09:08:05;6.00;;;3.43;;
12681;SDS011;6405;59.208;18.216;2023-02-21T09:10:34;4.40;;;3.27;;
12681;SDS011;6405;59.208;18.216;2023-02-21T09:13:00;6.53;;;3.50;;
12681;SDS011;6405;59.208;18.216;2023-02-21T09:15:27;5.60;;;3.83;;
12681;SDS011;6405;59.208;18.216;2023-02-21T09:17:52;4.93;;;3.33;;
12681;SDS011;6405;59.208;18.216;2023-02-21T09:20:22;5.40;;;3.50;;
12681;SDS011;6405;59.208;18.216;2023-02-21T09:22:49;4.87;;;3.23;;
12681;SDS011;6405;59.208;18.216;2023-02-21T09:25:16;5.30;;;3.30;;
12681;SDS011;6405;59.208;18.216;2023-02-21T09:27:43;4.67;;;3.60;;
12681;SDS011;6405;59.208;18.216;2023-02-21T09:30:13;5.37;;;3.70;;
12681;SDS011;6405;59.208;18.216;2023-02-21T09:32:41;6.10;;;3.40;;
12681;SDS011;6405;59.208;18.216;2023-02-21T09:35:07;4.40;;;3.30;;
12681;SDS011;6405;59.208;18.216;2023-02-21T09:37:37;4.87;;;3.40;;
12681;SDS011;6405;59.208;18.216;2023-02-21T09:40:06;4.40;;;2.97;;
12681;SDS011;6405;59.208;18.216;2023-02-21T09:42:56;5.40;;;3.67;;
12681;SDS011;6405;59.208;18.216;2023-02-21T09:45:25;5.47;;;3.37;;
12681;SDS011;6405;59.208;18.216;2023-02-21T09:47:54;4.50;;;3.27;;
12681;SDS011;6405;59.208;18.216;2023-02-21T09:50:28;6.30;;;3.47;;
12681;SDS011;6405;59.208;18.216;2023-02-21T09:52:58;7.80;;;3.87;;
12681;SDS011;6405;59.208;18.216;2023-02-21T09:55:29;6.30;;;4.00;;
12681;SDS011;6405;59.208;18.216;2023-02-21T09:57:58;6.60;;;4.30;;
12681;SDS011;6405;59.208;18.216;2023-02-21T10:00:26;6.20;;;4.40;;
12681;SDS011;6405;59.208;18.216;2023-02-21T10:17:22;6.57;;;4.07;;
12681;SDS011;6405;59.208;18.216;2023-02-21T10:19:54;5.80;;;4.40;;
12681;SDS011;6405;59.208;18.216;2023-02-21T10:22:27;5.30;;;4.20;;
12681;SDS011;6405;59.208;18.216;2023-02-21T10:24:58;4.63;;;3.73;;
12681;SDS011;6405;59.208;18.216;2023-02-21T10:27:25;4.03;;;3.30;;
12681;SDS011;6405;59.208;18.216;2023-02-21T10:30:02;3.57;;;2.13;;
12681;SDS011;6405;59.208;18.216;2023-02-21T10:32:32;6.40;;;3.33;;
12681;SDS011;6405;59.208;18.216;2023-02-21T10:34:58;4.10;;;3.23;;
12681;SDS011;6405;59.208;18.216;2023-02-21T10:37:27;5.10;;;3.43;;
12681;SDS011;6405;59.208;18.216;2023-02-21T10:45:44;5.00;;;3.20;;
12681;SDS011;6405;59.208;18.216;2023-02-21T10:48:20;6.17;;;3.50;;
12681;SDS011;6405;59.208;18.216;2023-02-21T10:53:29;4.70;;;3.43;;
12681;SDS011;6405;59.208;18.216;2023-02-21T10:56:39;4.10;;;2.90;;
12681;SDS011;6405;59.208;18.216;2023-02-21T10:58:52;4.83;;;3.20;;
12681;SDS011;6405;59.208;18.216;2023-02-21T11:03:48;5.07;;;2.93;;
12681;SDS011;6405;59.208;18.216;2023-02-21T11:06:24;3.70;;;2.83;;
12681;SDS011;6405;59.208;18.216;2023-02-21T11:08:57;4.77;;;3.43;;
12681;SDS011;6405;59.208;18.216;2023-02-21T11:11:30;3.70;;;3.23;;
12681;SDS011;6405;59.208;18.216;2023-02-21T11:16:41;3.50;;;2.83;;
12681;SDS011;6405;59.208;18.216;2023-02-21T11:19:09;4.90;;;3.07;;
12681;SDS011;6405;59.208;18.216;2023-02-21T11:21:37;4.53;;;2.93;;
12681;SDS011;6405;59.208;18.216;2023-02-21T11:24:05;3.97;;;3.00;;
12681;SDS011;6405;59.208;18.216;2023-02-21T11:26:43;3.63;;;2.57;;
12681;SDS011;6405;59.208;18.216;2023-02-21T11:29:20;3.30;;;2.83;;
12681;SDS011;6405;59.208;18.216;2023-02-21T11:31:49;5.70;;;3.30;;
12681;SDS011;6405;59.208;18.216;2023-02-21T11:34:16;3.53;;;3.00;;
12681;SDS011;6405;59.208;18.216;2023-02-21T11:36:44;3.73;;;2.70;;
12681;SDS011;6405;59.208;18.216;2023-02-21T11:39:18;4.93;;;3.00;;
12681;SDS011;6405;59.208;18.216;2023-02-21T11:41:58;4.97;;;3.07;;
12681;SDS011;6405;59.208;18.216;2023-02-21T11:44:37;4.60;;;3.07;;
12681;SDS011;6405;59.208;18.216;2023-02-21T11:47:21;4.80;;;3.33;;
12681;SDS011;6405;59.208;18.216;2023-02-21T11:50:06;4.83;;;3.23;;
12681;SDS011;6405;59.208;18.216;2023-02-21T11:55:36;4.40;;;3.10;;
12681;SDS011;6405;59.208;18.216;2023-02-21T11:58:19;5.47;;;3.37;;
12681;SDS011;6405;59.208;18.216;2023-02-21T12:00:59;5.07;;;3.23;;
12681;SDS011;6405;59.208;18.216;2023-02-21T12:11:36;5.63;;;3.17;;
12681;SDS011;6405;59.208;18.216;2023-02-21T12:23:25;4.80;;;3.60;;
12681;SDS011;6405;59.208;18.216;2023-02-21T12:26:07;5.67;;;3.93;;
12681;SDS011;6405;59.208;18.216;2023-02-21T12:28:59;6.40;;;3.40;;
12681;SDS011;6405;59.208;18.216;2023-02-21T12:31:35;4.67;;;3.57;;
12681;SDS011;6405;59.208;18.216;2023-02-21T12:36:53;5.97;;;3.60;;
12681;SDS011;6405;59.208;18.216;2023-02-21T12:39:55;4.30;;;3.37;;
12681;SDS011;6405;59.208;18.216;2023-02-21T12:45:28;5.87;;;3.70;;
12681;SDS011;6405;59.208;18.216;2023-02-21T12:48:17;3.97;;;3.03;;
12681;SDS011;6405;59.208;18.216;2023-02-21T12:50:56;5.27;;;3.47;;
12681;SDS011;6405;59.208;18.216;2023-02-21T12:53:34;4.73;;;3.33;;
12681;SDS011;6405;59.208;18.216;2023-02-21T12:56:23;5.00;;;3.70;;
12681;SDS011;6405;59.208;18.216;2023-02-21T13:01:40;4.60;;;3.33;;
12681;SDS011;6405;59.208;18.216;2023-02-21T13:04:35;5.50;;;3.43;;
12681;SDS011;6405;59.208;18.216;2023-02-21T13:07:16;5.90;;;3.93;;
12681;SDS011;6405;59.208;18.216;2023-02-21T13:09:53;4.43;;;3.47;;
12681;SDS011;6405;59.208;18.216;2023-02-21T13:12:40;5.77;;;3.67;;
12681;SDS011;6405;59.208;18.216;2023-02-21T13:15:28;4.53;;;3.40;;
12681;SDS011;6405;59.208;18.216;2023-02-21T13:20:27;7.07;;;4.23;;
12681;SDS011;6405;59.208;18.216;2023-02-21T13:23:04;5.80;;;3.70;;
12681;SDS011;6405;59.208;18.216;2023-02-21T13:29:09;8.10;;;3.93;;
12681;SDS011;6405;59.208;18.216;2023-02-21T13:31:54;5.30;;;3.37;;
12681;SDS011;6405;59.208;18.216;2023-02-21T13:34:23;5.00;;;3.40;;
12681;SDS011;6405;59.208;18.216;2023-02-21T13:36:51;4.67;;;3.07;;
12681;SDS011;6405;59.208;18.216;2023-02-21T13:39:18;6.83;;;3.60;;
12681;SDS011;6405;59.208;18.216;2023-02-21T13:41:55;3.10;;;2.73;;
12681;SDS011;6405;59.208;18.216;2023-02-21T13:44:40;5.40;;;3.37;;
12681;SDS011;6405;59.208;18.216;2023-02-21T13:47:09;7.03;;;3.63;;
12681;SDS011;6405;59.208;18.216;2023-02-21T13:49:42;5.93;;;4.07;;
12681;SDS011;6405;59.208;18.216;2023-02-21T13:57:43;5.10;;;3.00;;
12681;SDS011;6405;59.208;18.216;2023-02-21T14:00:52;4.50;;;3.20;;
12681;SDS011;6405;59.208;18.216;2023-02-21T14:03:02;3.67;;;2.70;;
12681;SDS011;6405;59.208;18.216;2023-02-21T14:10:58;6.13;;;3.37;;
12681;SDS011;6405;59.208;18.216;2023-02-21T14:13:47;5.43;;;2.90;;
12681;SDS011;6405;59.208;18.216;2023-02-21T14:18:48;4.07;;;2.73;;
12681;SDS011;6405;59.208;18.216;2023-02-21T14:21:29;4.73;;;2.73;;
12681;SDS011;6405;59.208;18.216;2023-02-21T14:24:00;3.57;;;2.70;;
12681;SDS011;6405;59.208;18.216;2023-02-21T14:26:35;4.00;;;2.90;;
12681;SDS011;6405;59.208;18.216;2023-02-21T14:31:45;4.83;;;3.57;;
12681;SDS011;6405;59.208;18.216;2023-02-21T14:34:24;2.97;;;2.43;;
12681;SDS011;6405;59.208;18.216;2023-02-21T14:59:36;3.40;;;2.53;;
12681;SDS011;6405;59.208;18.216;2023-02-21T15:05:21;4.93;;;3.60;;
12681;SDS011;6405;59.208;18.216;2023-02-21T15:07:54;4.03;;;2.57;;
12681;SDS011;6405;59.208;18.216;2023-02-21T15:10:41;4.97;;;3.20;;
12681;SDS011;6405;59.208;18.216;2023-02-21T15:13:22;6.10;;;3.67;;
12681;SDS011;6405;59.208;18.216;2023-02-21T15:18:58;4.90;;;3.20;;
12681;SDS011;6405;59.208;18.216;2023-02-21T15:21:25;5.37;;;3.17;;
12681;SDS011;6405;59.208;18.216;2023-02-21T15:23:59;4.47;;;2.80;;
12681;SDS011;6405;59.208;18.216;2023-02-21T15:26:28;4.80;;;3.20;;
12681;SDS011;6405;59.208;18.216;2023-02-21T15:29:28;5.67;;;3.50;;
12681;SDS011;6405;59.208;18.216;2023-02-21T15:31:48;5.07;;;3.30;;
12681;SDS011;6405;59.208;18.216;2023-02-21T15:37:03;4.83;;;3.43;;
12681;SDS011;6405;59.208;18.216;2023-02-21T15:39:50;4.80;;;3.33;;
12681;SDS011;6405;59.208;18.216;2023-02-21T15:42:18;5.93;;;3.53;;
12681;SDS011;6405;59.208;18.216;2023-02-21T15:44:49;6.30;;;3.63;;
12681;SDS011;6405;59.208;18.216;2023-02-21T15:47:36;5.67;;;3.63;;
12681;SDS011;6405;59.208;18.216;2023-02-21T15:52:43;4.97;;;3.80;;
12681;SDS011;6405;59.208;18.216;2023-02-21T15:57:44;5.77;;;4.40;;
12681;SDS011;6405;59.208;18.216;2023-02-21T16:00:32;5.53;;;4.27;;
12681;SDS011;6405;59.208;18.216;2023-02-21T16:03:29;7.03;;;4.77;;
12681;SDS011;6405;59.208;18.216;2023-02-21T16:06:11;6.13;;;4.30;;
12681;SDS011;6405;59.208;18.216;2023-02-21T16:08:50;7.77;;;4.27;;
12681;SDS011;6405;59.208;18.216;2023-02-21T16:11:23;6.50;;;4.10;;
12681;SDS011;6405;59.208;18.216;2023-02-21T16:19:33;6.53;;;4.60;;
12681;SDS011;6405;59.208;18.216;2023-02-21T16:27:40;7.77;;;4.60;;
12681;SDS011;6405;59.208;18.216;2023-02-21T16:30:27;10.53;;;5.47;;
12681;SDS011;6405;59.208;18.216;2023-02-21T16:32:57;8.83;;;5.60;;
12681;SDS011;6405;59.208;18.216;2023-02-21T16:35:25;8.00;;;5.53;;
12681;SDS011;6405;59.208;18.216;2023-02-21T16:37:53;5.97;;;3.83;;
12681;SDS011;6405;59.208;18.216;2023-02-21T16:40:21;8.13;;;5.13;;
12681;SDS011;6405;59.208;18.216;2023-02-21T16:42:53;8.50;;;5.33;;
12681;SDS011;6405;59.208;18.216;2023-02-21T16:45:19;6.83;;;4.70;;
12681;SDS011;6405;59.208;18.216;2023-02-21T16:47:47;7.80;;;4.73;;
12681;SDS011;6405;59.208;18.216;2023-02-21T16:50:19;8.30;;;4.73;;
12681;SDS011;6405;59.208;18.216;2023-02-21T16:52:50;7.87;;;4.40;;
12681;SDS011;6405;59.208;18.216;2023-02-21T16:55:16;6.70;;;4.20;;
12681;SDS011;6405;59.208;18.216;2023-02-21T16:57:45;7.90;;;5.10;;
12681;SDS011;6405;59.208;18.216;2023-02-21T17:00:13;9.73;;;5.27;;
12681;SDS011;6405;59.208;18.216;2023-02-21T17:02:40;8.23;;;4.97;;
12681;SDS011;6405;59.208;18.216;2023-02-21T17:05:05;8.00;;;5.57;;
12681;SDS011;6405;59.208;18.216;2023-02-21T17:07:31;8.90;;;5.03;;
12681;SDS011;6405;59.208;18.216;2023-02-21T17:09:57;10.17;;;5.60;;
12681;SDS011;6405;59.208;18.216;2023-02-21T17:12:23;7.53;;;5.37;;
12681;SDS011;6405;59.208;18.216;2023-02-21T17:14:48;5.67;;;4.13;;
12681;SDS011;6405;59.208;18.216;2023-02-21T17:17:14;7.40;;;4.77;;
12681;SDS011;6405;59.208;18.216;2023-02-21T17:19:41;6.97;;;5.07;;
12681;SDS011;6405;59.208;18.216;2023-02-21T17:22:07;9.43;;;4.40;;
12681;SDS011;6405;59.208;18.216;2023-02-21T17:24:33;8.00;;;4.90;;
12681;SDS011;6405;59.208;18.216;2023-02-21T17:26:58;8.83;;;4.90;;
12681;SDS011;6405;59.208;18.216;2023-02-21T17:29:24;6.73;;;3.80;;
12681;SDS011;6405;59.208;18.216;2023-02-21T17:31:53;7.73;;;4.57;;
12681;SDS011;6405;59.208;18.216;2023-02-21T17:34:20;8.00;;;4.67;;
12681;SDS011;6405;59.208;18.216;2023-02-21T17:36:49;7.13;;;4.80;;
12681;SDS011;6405;59.208;18.216;2023-02-21T17:39:16;7.50;;;4.90;;
12681;SDS011;6405;59.208;18.216;2023-02-21T17:41:49;6.93;;;5.00;;
12681;SDS011;6405;59.208;18.216;2023-02-21T17:44:16;5.93;;;4.93;;
12681;SDS011;6405;59.208;18.216;2023-02-21T17:46:48;8.00;;;4.53;;
12681;SDS011;6405;59.208;18.216;2023-02-21T17:49:19;5.97;;;4.53;;
12681;SDS011;6405;59.208;18.216;2023-02-21T17:51:47;6.60;;;4.60;;
12681;SDS011;6405;59.208;18.216;2023-02-21T17:54:14;7.37;;;5.00;;
12681;SDS011;6405;59.208;18.216;2023-02-21T17:56:41;7.47;;;4.43;;
12681;SDS011;6405;59.208;18.216;2023-02-21T17:59:07;7.57;;;4.87;;
12681;SDS011;6405;59.208;18.216;2023-02-21T18:01:32;9.80;;;4.17;;